Detall de PIREP

Printer-friendly versionPDF version

[2013/08/16 15:46:00]
Flight IATA:CT3404
Pilot Number:042
Company ICAO:CAT
Aircraft Type:MD11/E
PAX:300
Aircraft Registration:PAX
Departing Airport: LEBL
Destination Airport: GCLP
Alternate Airport:GCXO
Online: VATSIM
Route:SENIA UZ596 NEXAS UN975 GOTOR UN857 TERTO
Flight Level:F370
No Slew and time accel
No pause
Crash detect
Detect pilot in Cockpit between each 30 and 45 minutes
15:46 Zero fuel Weight: 377796 Lbs, Fuel Weight: 110004 Lbs
15:46 VATSIM:LEBL 161530Z 18009KT 9999 FEW022 28/22 Q1017 NOSIG
15:46 VATSIM:GCLP 161530Z 02025KT CAVOK 29/20 Q1013 NOSIG
15:46 VOICE CATALONIAN
15:49 Parking Brakes off
15:58 Take-off
15:58 Take off Weight: 486339 Lbs
15:58 Wind: 209º @ 004 Knots Heading: 244º
15:58 POS N41º 17´ 03´´ E002º 04´ 49´´
15:58 Gear Up: 178 Knots
15:58 Flaps:5 at 178 Knots
15:59 Flaps:4 at 186 Knots
15:59 Flaps:3 at 183 Knots
15:59 Flaps:2 at 182 Knots
15:59 Flaps:1 at 183 Knots
16:02 Flaps:0 at 252 Knots
16:13 Wind:317º@057 Knots Heading: 280º Ground Speed: 445 Knots Altitude 31768 ft
16:19 TOC
16:19 Fuel Weight: 96575 Lb
16:28 Wind:295º@066 Knots Heading: 254º Ground Speed: 438 Knots Altitude 37083 ft
16:43 Wind:292º@078 Knots Heading: 222º Ground Speed: 455 Knots Altitude 37047 ft
16:58 Wind:297º@079 Knots Heading: 215º Ground Speed: 483 Knots Altitude 37014 ft
17:13 Wind:304º@095 Knots Heading: 230º Ground Speed: 458 Knots Altitude 37047 ft
17:28 Wind:307º@090 Knots Heading: 230º Ground Speed: 466 Knots Altitude 37050 ft
17:43 Wind:312º@073 Knots Heading: 226º Ground Speed: 479 Knots Altitude 37043 ft
17:58 Wind:322º@049 Knots Heading: 222º Ground Speed: 490 Knots Altitude 37011 ft
18:13 Wind:338º@043 Knots Heading: 220º Ground Speed: 499 Knots Altitude 37004 ft
18:23 TOD
18:23 Fuel Weight: 65307 Lb
18:28 Wind:321º@020 Knots Heading: 223º Ground Speed: 430 Knots Altitude 24012 ft
18:35 Flaps:1 at 247 Knots
18:36 Flaps:2 at 241 Knots
18:36 Flaps:3 at 239 Knots
18:43 Wind:027º@002 Knots Heading: 254º Ground Speed: 245 Knots Altitude 5045 ft
18:46 Flaps:4 at 182 Knots
18:46 Flaps:3 at 182 Knots
18:46 Flaps:4 at 181 Knots
18:46 Flaps:5 at 179 Knots
18:46 Flaps:6 at 178 Knots
18:50 Flaps:7 at 180 Knots
18:50 Gear Down: 180 Knots
18:53 Flaps:8 at 186 Knots
18:53 Flaps:7 at 187 Knots
18:53 Flaps:6 at 190 Knots
18:53 Flaps:7 at 188 Knots
18:53 Flaps:6 at 190 Knots
18:53 Flaps:7 at 188 Knots
18:53 Flaps:6 at 190 Knots
18:53 Flaps:7 at 187 Knots
18:53 Flaps:8 at 173 Knots
18:56 TouchDown:Rate -198 ft/min Speed: 144 Knots
18:56 VATSIM:GCLP 161830Z 01023KT CAVOK 29/17 Q1014 NOSIG
18:56 Land
18:56 Wind:029º@014 Knots
18:56 Heading: 022º
18:56 Flight Duration: 02:58
18:56 Landing Weight: 434468 Lbs
18:56 POS N27º 55´ 58´´ W015º 23´ 10´´
18:58 Parking brakes on
18:58 Block to Block Duration: 03:09
18:58 Final Fuel: 56402 Lbls
18:58 Spent Fuel: 53602 Lbls
18:58 Flight Length: 1261 NM
18:58 TOD Land Length: 158 NM

Exportar CSV

Powered by Drupal - Modified by Danger4k